KHLC

Details ICAO KHLC
Name HILL CITY MUNI
Region United States
Timezone America/Chicago (UTC-6.0)
Plans Departing 1
Arriving 4
Stats Elevation 2,230 ft / 680 m (AMSL)
Location 39.380206° -99.831460°
Runways 1
Magnetic Variation 5.221° E
Sunrise 2017-12-14 13:53:05 UTC / 2017-12-14 07:53:05 Local
Sunset 2017-12-14 23:17:59 UTC / 2017-12-14 17:17:59 Local
Advertisement - Login to hide

Runways

ID Width Length Bearing (true) Bearing (mag) Surface Threshold Offset Overrun Length
17 75 ft / 23 m 5,009 ft / 1,527 m 181.17° 175.95° Concrete 0 ft / 0 m 0 ft / 0 m
35 75 ft / 23 m 5,009 ft / 1,527 m 1.17° 355.95° Concrete 0 ft / 0 m 0 ft / 0 m

Map

Weather


0- 5 10 15 20 25 30 35+ Temperature / ° C

Clouds and Precipitation
Forecast for 2017-12-15 06:00 UTC. Updated 2 hours ago

Ground ~20,000 ft ~40,000 ft Winds

METAR

KHLC 150253Z AUTO 32004KT 10SM SCT036 OVC075 02/M02 A3023 RMK AO2 SNB0154E13 SLP252 P0000 60000 T00171022 51015

TAF

Not found

Frequencies

Recorded 118.42 MHz ASOS
Unicom 122.80 MHz CTAF
Warning: Do not use this data for real-world aviation or navigation. No guarantee of current accuracy is given.